<?xml version="1.0" encoding="UTF-8" standalone="no" ?>
<gpx xmlns="http://www.topografix.com/GPX/1/1" xmlns:xsi="http://www.w3.org/2001/XMLSchema-instance" xsi:schemaLocation="http://www.topografix.com/GPX/1/1 http://www.topografix.com/GPX/1/1/gpx.xsd" version="1.1" creator="VisuGPX - https://www.visugpx.com">
  <metadata>
    <name>Le Véxin entre Auvers sur Oise et Nesles la Vallée</name>
  </metadata>
  <wpt lat="49.0717" lon="2.17653">
    <ele>39.3</ele>
    <name><![CDATA[Statue Charles François DAUBIGNY]]></name>
    <desc><![CDATA[]]></desc>
  </wpt>
  <wpt lat="49.07529" lon="2.17898">
    <ele>64</ele>
    <name><![CDATA[Tombes Vincent et Théo VAN GOGH]]></name>
    <desc><![CDATA[]]></desc>
  </wpt>
  <wpt lat="49.09835" lon="2.19002">
    <ele>30.1</ele>
    <name><![CDATA[Lavoir]]></name>
    <desc><![CDATA[]]></desc>
  </wpt>
  <wpt lat="49.12261" lon="2.18907">
    <ele>86.8</ele>
    <name><![CDATA[Croix des friches]]></name>
    <desc><![CDATA[]]></desc>
  </wpt>
  <wpt lat="49.12644" lon="2.17662">
    <ele>41.4</ele>
    <name><![CDATA[Bel arbre]]></name>
    <desc><![CDATA[]]></desc>
  </wpt>
  <wpt lat="49.12621" lon="2.17154">
    <ele>37.8</ele>
    <name><![CDATA[Lavoir]]></name>
    <desc><![CDATA[]]></desc>
  </wpt>
  <wpt lat="49.12816" lon="2.17093">
    <ele>42.7</ele>
    <name><![CDATA[Monument aux morts et Hôtel de Ville]]></name>
    <desc><![CDATA[]]></desc>
  </wpt>
  <wpt lat="49.12872" lon="2.16997">
    <ele>41.9</ele>
    <name><![CDATA[Eglise et corps de ferme]]></name>
    <desc><![CDATA[]]></desc>
  </wpt>
  <wpt lat="49.12892" lon="2.16771">
    <ele>38.3</ele>
    <name><![CDATA[Lavoir]]></name>
    <desc><![CDATA[]]></desc>
  </wpt>
  <wpt lat="49.07179" lon="2.17596">
    <ele>35</ele>
    <name><![CDATA[Notre Dame de l'Assomption]]></name>
    <desc><![CDATA[]]></desc>
  </wpt>
  <trk>
    <name><![CDATA[9910417-Auvers Nesles]]></name>
    <trkseg>
      <trkpt lat="49.07052" lon="2.17619">
        <ele>28</ele>
        <time>2019-05-13T19:14:30Z</time>
      </trkpt>
      <trkpt lat="49.07069" lon="2.17681">
        <ele>28</ele>
        <time>2019-05-13T19:15:30Z</time>
      </trkpt>
      <trkpt lat="49.0706" lon="2.17769">
        <ele>27</ele>
        <time>2019-05-13T19:16:30Z</time>
      </trkpt>
      <trkpt lat="49.07071" lon="2.17772">
        <ele>27</ele>
        <time>2019-05-13T19:17:30Z</time>
      </trkpt>
      <trkpt lat="49.07156" lon="2.1767">
        <ele>39</ele>
        <time>2019-05-13T19:18:30Z</time>
      </trkpt>
      <trkpt lat="49.07165" lon="2.17663">
        <ele>41</ele>
        <time>2019-05-13T19:19:30Z</time>
      </trkpt>
      <trkpt lat="49.0718" lon="2.17666">
        <ele>43</ele>
        <time>2019-05-13T19:20:30Z</time>
      </trkpt>
      <trkpt lat="49.07195" lon="2.17683">
        <ele>44</ele>
        <time>2019-05-13T19:21:30Z</time>
      </trkpt>
      <trkpt lat="49.07204" lon="2.17698">
        <ele>45</ele>
        <time>2019-05-13T19:22:30Z</time>
      </trkpt>
      <trkpt lat="49.07218" lon="2.17678">
        <ele>48</ele>
        <time>2019-05-13T19:23:30Z</time>
      </trkpt>
      <trkpt lat="49.0724" lon="2.17669">
        <ele>51</ele>
        <time>2019-05-13T19:24:30Z</time>
      </trkpt>
      <trkpt lat="49.07254" lon="2.17701">
        <ele>52</ele>
        <time>2019-05-13T19:25:30Z</time>
      </trkpt>
      <trkpt lat="49.07377" lon="2.17763">
        <ele>58</ele>
        <time>2019-05-13T19:26:30Z</time>
      </trkpt>
      <trkpt lat="49.07452" lon="2.17835">
        <ele>60</ele>
        <time>2019-05-13T19:27:30Z</time>
      </trkpt>
      <trkpt lat="49.07453" lon="2.17876">
        <ele>60</ele>
        <time>2019-05-13T19:28:30Z</time>
      </trkpt>
      <trkpt lat="49.0747" lon="2.17872">
        <ele>60</ele>
        <time>2019-05-13T19:29:30Z</time>
      </trkpt>
      <trkpt lat="49.07471" lon="2.1788">
        <ele>60</ele>
        <time>2019-05-13T19:30:30Z</time>
      </trkpt>
      <trkpt lat="49.0752" lon="2.17864">
        <ele>61</ele>
        <time>2019-05-13T19:31:30Z</time>
      </trkpt>
      <trkpt lat="49.07529" lon="2.17893">
        <ele>61</ele>
        <time>2019-05-13T19:32:30Z</time>
      </trkpt>
      <trkpt lat="49.07529" lon="2.17877">
        <ele>61</ele>
        <time>2019-05-13T19:33:30Z</time>
      </trkpt>
      <trkpt lat="49.07567" lon="2.17969">
        <ele>62</ele>
        <time>2019-05-13T19:34:30Z</time>
      </trkpt>
      <trkpt lat="49.07635" lon="2.18171">
        <ele>61</ele>
        <time>2019-05-13T19:35:30Z</time>
      </trkpt>
      <trkpt lat="49.07672" lon="2.18229">
        <ele>61</ele>
        <time>2019-05-13T19:36:30Z</time>
      </trkpt>
      <trkpt lat="49.07739" lon="2.18435">
        <ele>62</ele>
        <time>2019-05-13T19:37:30Z</time>
      </trkpt>
      <trkpt lat="49.07789" lon="2.18508">
        <ele>62</ele>
        <time>2019-05-13T19:38:30Z</time>
      </trkpt>
      <trkpt lat="49.07901" lon="2.18783">
        <ele>64</ele>
        <time>2019-05-13T19:39:30Z</time>
      </trkpt>
      <trkpt lat="49.07966" lon="2.18914">
        <ele>67</ele>
        <time>2019-05-13T19:40:30Z</time>
      </trkpt>
      <trkpt lat="49.08056" lon="2.19016">
        <ele>68</ele>
        <time>2019-05-13T19:41:30Z</time>
      </trkpt>
      <trkpt lat="49.08128" lon="2.19149">
        <ele>68</ele>
        <time>2019-05-13T19:42:30Z</time>
      </trkpt>
      <trkpt lat="49.08242" lon="2.19351">
        <ele>67</ele>
        <time>2019-05-13T19:43:30Z</time>
      </trkpt>
      <trkpt lat="49.08295" lon="2.1944">
        <ele>62</ele>
        <time>2019-05-13T19:44:30Z</time>
      </trkpt>
      <trkpt lat="49.08346" lon="2.19347">
        <ele>70</ele>
        <time>2019-05-13T19:45:30Z</time>
      </trkpt>
      <trkpt lat="49.08362" lon="2.19283">
        <ele>71</ele>
        <time>2019-05-13T19:46:30Z</time>
      </trkpt>
      <trkpt lat="49.08353" lon="2.19177">
        <ele>72</ele>
        <time>2019-05-13T19:47:30Z</time>
      </trkpt>
      <trkpt lat="49.08382" lon="2.18945">
        <ele>73</ele>
        <time>2019-05-13T19:48:30Z</time>
      </trkpt>
      <trkpt lat="49.08398" lon="2.18772">
        <ele>74</ele>
        <time>2019-05-13T19:49:30Z</time>
      </trkpt>
      <trkpt lat="49.08604" lon="2.18957">
        <ele>76</ele>
        <time>2019-05-13T19:50:30Z</time>
      </trkpt>
      <trkpt lat="49.08768" lon="2.19107">
        <ele>78</ele>
        <time>2019-05-13T19:51:30Z</time>
      </trkpt>
      <trkpt lat="49.08889" lon="2.189">
        <ele>89</ele>
        <time>2019-05-13T19:52:30Z</time>
      </trkpt>
      <trkpt lat="49.08927" lon="2.18834">
        <ele>92</ele>
        <time>2019-05-13T19:53:30Z</time>
      </trkpt>
      <trkpt lat="49.09217" lon="2.18615">
        <ele>92</ele>
        <time>2019-05-13T19:54:30Z</time>
      </trkpt>
      <trkpt lat="49.09273" lon="2.18864">
        <ele>81</ele>
        <time>2019-05-13T19:55:30Z</time>
      </trkpt>
      <trkpt lat="49.09293" lon="2.18944">
        <ele>76</ele>
        <time>2019-05-13T19:56:30Z</time>
      </trkpt>
      <trkpt lat="49.09322" lon="2.19015">
        <ele>73</ele>
        <time>2019-05-13T19:57:30Z</time>
      </trkpt>
      <trkpt lat="49.09324" lon="2.19114">
        <ele>65</ele>
        <time>2019-05-13T19:58:30Z</time>
      </trkpt>
      <trkpt lat="49.09304" lon="2.19175">
        <ele>61</ele>
        <time>2019-05-13T19:59:30Z</time>
      </trkpt>
      <trkpt lat="49.09243" lon="2.19239">
        <ele>67</ele>
        <time>2019-05-13T20:00:30Z</time>
      </trkpt>
      <trkpt lat="49.09261" lon="2.1928">
        <ele>61</ele>
        <time>2019-05-13T20:01:30Z</time>
      </trkpt>
      <trkpt lat="49.0927" lon="2.19354">
        <ele>52</ele>
        <time>2019-05-13T20:02:30Z</time>
      </trkpt>
      <trkpt lat="49.09276" lon="2.19442">
        <ele>41</ele>
        <time>2019-05-13T20:03:30Z</time>
      </trkpt>
      <trkpt lat="49.09283" lon="2.19488">
        <ele>35</ele>
        <time>2019-05-13T20:04:30Z</time>
      </trkpt>
      <trkpt lat="49.09344" lon="2.19507">
        <ele>30</ele>
        <time>2019-05-13T20:05:30Z</time>
      </trkpt>
      <trkpt lat="49.09392" lon="2.19434">
        <ele>30</ele>
        <time>2019-05-13T20:06:30Z</time>
      </trkpt>
      <trkpt lat="49.09409" lon="2.19358">
        <ele>30</ele>
        <time>2019-05-13T20:07:30Z</time>
      </trkpt>
      <trkpt lat="49.09504" lon="2.19327">
        <ele>30</ele>
        <time>2019-05-13T20:08:30Z</time>
      </trkpt>
      <trkpt lat="49.09556" lon="2.19311">
        <ele>29</ele>
        <time>2019-05-13T20:09:30Z</time>
      </trkpt>
      <trkpt lat="49.09718" lon="2.19175">
        <ele>32</ele>
        <time>2019-05-13T20:10:30Z</time>
      </trkpt>
      <trkpt lat="49.09773" lon="2.19096">
        <ele>32</ele>
        <time>2019-05-13T20:11:30Z</time>
      </trkpt>
      <trkpt lat="49.09817" lon="2.18994">
        <ele>32</ele>
        <time>2019-05-13T20:12:30Z</time>
      </trkpt>
      <trkpt lat="49.09837" lon="2.19">
        <ele>33</ele>
        <time>2019-05-13T20:13:30Z</time>
      </trkpt>
      <trkpt lat="49.09821" lon="2.18981">
        <ele>32</ele>
        <time>2019-05-13T20:14:30Z</time>
      </trkpt>
      <trkpt lat="49.09847" lon="2.18913">
        <ele>33</ele>
        <time>2019-05-13T20:15:30Z</time>
      </trkpt>
      <trkpt lat="49.09874" lon="2.18841">
        <ele>34</ele>
        <time>2019-05-13T20:16:30Z</time>
      </trkpt>
      <trkpt lat="49.09892" lon="2.18644">
        <ele>34</ele>
        <time>2019-05-13T20:17:30Z</time>
      </trkpt>
      <trkpt lat="49.09903" lon="2.18588">
        <ele>33</ele>
        <time>2019-05-13T20:18:30Z</time>
      </trkpt>
      <trkpt lat="49.09989" lon="2.18658">
        <ele>39</ele>
        <time>2019-05-13T20:19:30Z</time>
      </trkpt>
      <trkpt lat="49.10029" lon="2.18581">
        <ele>40</ele>
        <time>2019-05-13T20:20:30Z</time>
      </trkpt>
      <trkpt lat="49.10098" lon="2.18518">
        <ele>45</ele>
        <time>2019-05-13T20:21:30Z</time>
      </trkpt>
      <trkpt lat="49.10166" lon="2.18496">
        <ele>47</ele>
        <time>2019-05-13T20:22:30Z</time>
      </trkpt>
      <trkpt lat="49.10222" lon="2.18514">
        <ele>41</ele>
        <time>2019-05-13T20:23:30Z</time>
      </trkpt>
      <trkpt lat="49.10296" lon="2.18564">
        <ele>40</ele>
        <time>2019-05-13T20:24:30Z</time>
      </trkpt>
      <trkpt lat="49.10286" lon="2.18642">
        <ele>54</ele>
        <time>2019-05-13T20:25:30Z</time>
      </trkpt>
      <trkpt lat="49.10314" lon="2.18689">
        <ele>58</ele>
        <time>2019-05-13T20:26:30Z</time>
      </trkpt>
      <trkpt lat="49.10358" lon="2.18761">
        <ele>65</ele>
        <time>2019-05-13T20:27:30Z</time>
      </trkpt>
      <trkpt lat="49.10412" lon="2.1886">
        <ele>78</ele>
        <time>2019-05-13T20:28:30Z</time>
      </trkpt>
      <trkpt lat="49.1048" lon="2.18917">
        <ele>82</ele>
        <time>2019-05-13T20:29:30Z</time>
      </trkpt>
      <trkpt lat="49.10546" lon="2.18956">
        <ele>85</ele>
        <time>2019-05-13T20:30:30Z</time>
      </trkpt>
      <trkpt lat="49.10614" lon="2.18996">
        <ele>84</ele>
        <time>2019-05-13T20:31:30Z</time>
      </trkpt>
      <trkpt lat="49.10675" lon="2.19046">
        <ele>83</ele>
        <time>2019-05-13T20:32:30Z</time>
      </trkpt>
      <trkpt lat="49.10749" lon="2.19098">
        <ele>87</ele>
        <time>2019-05-13T20:33:30Z</time>
      </trkpt>
      <trkpt lat="49.10806" lon="2.19123">
        <ele>89</ele>
        <time>2019-05-13T20:34:30Z</time>
      </trkpt>
      <trkpt lat="49.10876" lon="2.19139">
        <ele>87</ele>
        <time>2019-05-13T20:35:30Z</time>
      </trkpt>
      <trkpt lat="49.10904" lon="2.19138">
        <ele>85</ele>
        <time>2019-05-13T20:36:30Z</time>
      </trkpt>
      <trkpt lat="49.10961" lon="2.19176">
        <ele>86</ele>
        <time>2019-05-13T20:37:30Z</time>
      </trkpt>
      <trkpt lat="49.11023" lon="2.1923">
        <ele>88</ele>
        <time>2019-05-13T20:38:30Z</time>
      </trkpt>
      <trkpt lat="49.11119" lon="2.19261">
        <ele>99</ele>
        <time>2019-05-13T20:39:30Z</time>
      </trkpt>
      <trkpt lat="49.11162" lon="2.19301">
        <ele>107</ele>
        <time>2019-05-13T20:40:30Z</time>
      </trkpt>
      <trkpt lat="49.11237" lon="2.19331">
        <ele>109</ele>
        <time>2019-05-13T20:41:30Z</time>
      </trkpt>
      <trkpt lat="49.11324" lon="2.19391">
        <ele>106</ele>
        <time>2019-05-13T20:42:30Z</time>
      </trkpt>
      <trkpt lat="49.11389" lon="2.19441">
        <ele>108</ele>
        <time>2019-05-13T20:43:30Z</time>
      </trkpt>
      <trkpt lat="49.11471" lon="2.19526">
        <ele>109</ele>
        <time>2019-05-13T20:44:30Z</time>
      </trkpt>
      <trkpt lat="49.11565" lon="2.19636">
        <ele>107</ele>
        <time>2019-05-13T20:45:30Z</time>
      </trkpt>
      <trkpt lat="49.11651" lon="2.19748">
        <ele>106</ele>
        <time>2019-05-13T20:46:30Z</time>
      </trkpt>
      <trkpt lat="49.1173" lon="2.19845">
        <ele>104</ele>
        <time>2019-05-13T20:47:30Z</time>
      </trkpt>
      <trkpt lat="49.11794" lon="2.19924">
        <ele>102</ele>
        <time>2019-05-13T20:48:30Z</time>
      </trkpt>
      <trkpt lat="49.11864" lon="2.19788">
        <ele>100</ele>
        <time>2019-05-13T20:49:30Z</time>
      </trkpt>
      <trkpt lat="49.11967" lon="2.1964">
        <ele>90</ele>
        <time>2019-05-13T20:50:30Z</time>
      </trkpt>
      <trkpt lat="49.12003" lon="2.19564">
        <ele>89</ele>
        <time>2019-05-13T20:51:30Z</time>
      </trkpt>
      <trkpt lat="49.12142" lon="2.19209">
        <ele>85</ele>
        <time>2019-05-13T20:52:30Z</time>
      </trkpt>
      <trkpt lat="49.12193" lon="2.19027">
        <ele>85</ele>
        <time>2019-05-13T20:53:30Z</time>
      </trkpt>
      <trkpt lat="49.12212" lon="2.18971">
        <ele>84</ele>
        <time>2019-05-13T20:54:30Z</time>
      </trkpt>
      <trkpt lat="49.12255" lon="2.1891">
        <ele>84</ele>
        <time>2019-05-13T20:55:30Z</time>
      </trkpt>
      <trkpt lat="49.12307" lon="2.18714">
        <ele>80</ele>
        <time>2019-05-13T20:56:30Z</time>
      </trkpt>
      <trkpt lat="49.12352" lon="2.18625">
        <ele>76</ele>
        <time>2019-05-13T20:57:30Z</time>
      </trkpt>
      <trkpt lat="49.12402" lon="2.18574">
        <ele>71</ele>
        <time>2019-05-13T20:58:30Z</time>
      </trkpt>
      <trkpt lat="49.12431" lon="2.18564">
        <ele>70</ele>
        <time>2019-05-13T20:59:30Z</time>
      </trkpt>
      <trkpt lat="49.12444" lon="2.18533">
        <ele>66</ele>
        <time>2019-05-13T21:00:30Z</time>
      </trkpt>
      <trkpt lat="49.12483" lon="2.18483">
        <ele>59</ele>
        <time>2019-05-13T21:01:30Z</time>
      </trkpt>
      <trkpt lat="49.12527" lon="2.18463">
        <ele>54</ele>
        <time>2019-05-13T21:02:30Z</time>
      </trkpt>
      <trkpt lat="49.12586" lon="2.1847">
        <ele>53</ele>
        <time>2019-05-13T21:03:30Z</time>
      </trkpt>
      <trkpt lat="49.1262" lon="2.1836">
        <ele>44</ele>
        <time>2019-05-13T21:04:30Z</time>
      </trkpt>
      <trkpt lat="49.1261" lon="2.18246">
        <ele>42</ele>
        <time>2019-05-13T21:05:30Z</time>
      </trkpt>
      <trkpt lat="49.12595" lon="2.18163">
        <ele>41</ele>
        <time>2019-05-13T21:06:30Z</time>
      </trkpt>
      <trkpt lat="49.12582" lon="2.18068">
        <ele>42</ele>
        <time>2019-05-13T21:07:30Z</time>
      </trkpt>
      <trkpt lat="49.12594" lon="2.17911">
        <ele>42</ele>
        <time>2019-05-13T21:08:30Z</time>
      </trkpt>
      <trkpt lat="49.12675" lon="2.17734">
        <ele>48</ele>
        <time>2019-05-13T21:09:30Z</time>
      </trkpt>
      <trkpt lat="49.12693" lon="2.17656">
        <ele>49</ele>
        <time>2019-05-13T21:10:30Z</time>
      </trkpt>
      <trkpt lat="49.12552" lon="2.17593">
        <ele>41</ele>
        <time>2019-05-13T21:11:30Z</time>
      </trkpt>
      <trkpt lat="49.12493" lon="2.17558">
        <ele>40</ele>
        <time>2019-05-13T21:12:30Z</time>
      </trkpt>
      <trkpt lat="49.12502" lon="2.17505">
        <ele>41</ele>
        <time>2019-05-13T21:13:30Z</time>
      </trkpt>
      <trkpt lat="49.12533" lon="2.17392">
        <ele>43</ele>
        <time>2019-05-13T21:14:30Z</time>
      </trkpt>
      <trkpt lat="49.12525" lon="2.17372">
        <ele>44</ele>
        <time>2019-05-13T21:15:30Z</time>
      </trkpt>
      <trkpt lat="49.12506" lon="2.17367">
        <ele>43</ele>
        <time>2019-05-13T21:16:30Z</time>
      </trkpt>
      <trkpt lat="49.12503" lon="2.17351">
        <ele>44</ele>
        <time>2019-05-13T21:17:30Z</time>
      </trkpt>
      <trkpt lat="49.12517" lon="2.17341">
        <ele>44</ele>
        <time>2019-05-13T21:18:30Z</time>
      </trkpt>
      <trkpt lat="49.12557" lon="2.17311">
        <ele>44</ele>
        <time>2019-05-13T21:19:30Z</time>
      </trkpt>
      <trkpt lat="49.12624" lon="2.17138">
        <ele>40</ele>
        <time>2019-05-13T21:20:30Z</time>
      </trkpt>
      <trkpt lat="49.12634" lon="2.17136">
        <ele>40</ele>
        <time>2019-05-13T21:21:30Z</time>
      </trkpt>
      <trkpt lat="49.12656" lon="2.17118">
        <ele>41</ele>
        <time>2019-05-13T21:22:30Z</time>
      </trkpt>
      <trkpt lat="49.12795" lon="2.17083">
        <ele>42</ele>
        <time>2019-05-13T21:23:30Z</time>
      </trkpt>
      <trkpt lat="49.12851" lon="2.17009">
        <ele>41</ele>
        <time>2019-05-13T21:24:30Z</time>
      </trkpt>
      <trkpt lat="49.12896" lon="2.16934">
        <ele>40</ele>
        <time>2019-05-13T21:25:30Z</time>
      </trkpt>
      <trkpt lat="49.12932" lon="2.16829">
        <ele>38</ele>
        <time>2019-05-13T21:26:30Z</time>
      </trkpt>
      <trkpt lat="49.12899" lon="2.16764">
        <ele>38</ele>
        <time>2019-05-13T21:27:30Z</time>
      </trkpt>
      <trkpt lat="49.12977" lon="2.16732">
        <ele>39</ele>
        <time>2019-05-13T21:28:30Z</time>
      </trkpt>
      <trkpt lat="49.13021" lon="2.16701">
        <ele>38</ele>
        <time>2019-05-13T21:29:30Z</time>
      </trkpt>
      <trkpt lat="49.13035" lon="2.16669">
        <ele>38</ele>
        <time>2019-05-13T21:30:30Z</time>
      </trkpt>
      <trkpt lat="49.12883" lon="2.16731">
        <ele>38</ele>
        <time>2019-05-13T21:31:30Z</time>
      </trkpt>
      <trkpt lat="49.12805" lon="2.16768">
        <ele>39</ele>
        <time>2019-05-13T21:32:30Z</time>
      </trkpt>
      <trkpt lat="49.12739" lon="2.16818">
        <ele>42</ele>
        <time>2019-05-13T21:33:30Z</time>
      </trkpt>
      <trkpt lat="49.12665" lon="2.16855">
        <ele>43</ele>
        <time>2019-05-13T21:34:30Z</time>
      </trkpt>
      <trkpt lat="49.12571" lon="2.16913">
        <ele>42</ele>
        <time>2019-05-13T21:35:30Z</time>
      </trkpt>
      <trkpt lat="49.12543" lon="2.16954">
        <ele>43</ele>
        <time>2019-05-13T21:36:30Z</time>
      </trkpt>
      <trkpt lat="49.12503" lon="2.17035">
        <ele>43</ele>
        <time>2019-05-13T21:37:30Z</time>
      </trkpt>
      <trkpt lat="49.12462" lon="2.17295">
        <ele>44</ele>
        <time>2019-05-13T21:38:30Z</time>
      </trkpt>
      <trkpt lat="49.12446" lon="2.17357">
        <ele>43</ele>
        <time>2019-05-13T21:39:30Z</time>
      </trkpt>
      <trkpt lat="49.12406" lon="2.17431">
        <ele>41</ele>
        <time>2019-05-13T21:40:30Z</time>
      </trkpt>
      <trkpt lat="49.12335" lon="2.17517">
        <ele>40</ele>
        <time>2019-05-13T21:41:30Z</time>
      </trkpt>
      <trkpt lat="49.12256" lon="2.17617">
        <ele>43</ele>
        <time>2019-05-13T21:42:30Z</time>
      </trkpt>
      <trkpt lat="49.12213" lon="2.17684">
        <ele>45</ele>
        <time>2019-05-13T21:43:30Z</time>
      </trkpt>
      <trkpt lat="49.12166" lon="2.17798">
        <ele>45</ele>
        <time>2019-05-13T21:44:30Z</time>
      </trkpt>
      <trkpt lat="49.12123" lon="2.17859">
        <ele>45</ele>
        <time>2019-05-13T21:45:30Z</time>
      </trkpt>
      <trkpt lat="49.12062" lon="2.17906">
        <ele>46</ele>
        <time>2019-05-13T21:46:30Z</time>
      </trkpt>
      <trkpt lat="49.12012" lon="2.17924">
        <ele>47</ele>
        <time>2019-05-13T21:47:30Z</time>
      </trkpt>
      <trkpt lat="49.11926" lon="2.17898">
        <ele>46</ele>
        <time>2019-05-13T21:48:30Z</time>
      </trkpt>
      <trkpt lat="49.11862" lon="2.17835">
        <ele>44</ele>
        <time>2019-05-13T21:49:30Z</time>
      </trkpt>
      <trkpt lat="49.11786" lon="2.17761">
        <ele>45</ele>
        <time>2019-05-13T21:50:30Z</time>
      </trkpt>
      <trkpt lat="49.11677" lon="2.17709">
        <ele>43</ele>
        <time>2019-05-13T21:51:30Z</time>
      </trkpt>
      <trkpt lat="49.11596" lon="2.17689">
        <ele>40</ele>
        <time>2019-05-13T21:52:30Z</time>
      </trkpt>
      <trkpt lat="49.11433" lon="2.17653">
        <ele>44</ele>
        <time>2019-05-13T21:53:30Z</time>
      </trkpt>
      <trkpt lat="49.11344" lon="2.17639">
        <ele>47</ele>
        <time>2019-05-13T21:54:30Z</time>
      </trkpt>
      <trkpt lat="49.11221" lon="2.17647">
        <ele>41</ele>
        <time>2019-05-13T21:55:30Z</time>
      </trkpt>
      <trkpt lat="49.11053" lon="2.17665">
        <ele>42</ele>
        <time>2019-05-13T21:56:30Z</time>
      </trkpt>
      <trkpt lat="49.1098" lon="2.17683">
        <ele>45</ele>
        <time>2019-05-13T21:57:30Z</time>
      </trkpt>
      <trkpt lat="49.1092" lon="2.17721">
        <ele>47</ele>
        <time>2019-05-13T21:58:30Z</time>
      </trkpt>
      <trkpt lat="49.10872" lon="2.17762">
        <ele>47</ele>
        <time>2019-05-13T21:59:30Z</time>
      </trkpt>
      <trkpt lat="49.10803" lon="2.17871">
        <ele>41</ele>
        <time>2019-05-13T22:00:30Z</time>
      </trkpt>
      <trkpt lat="49.10699" lon="2.18053">
        <ele>37</ele>
        <time>2019-05-13T22:01:30Z</time>
      </trkpt>
      <trkpt lat="49.10639" lon="2.18158">
        <ele>35</ele>
        <time>2019-05-13T22:02:30Z</time>
      </trkpt>
      <trkpt lat="49.10623" lon="2.18136">
        <ele>36</ele>
        <time>2019-05-13T22:03:30Z</time>
      </trkpt>
      <trkpt lat="49.10599" lon="2.18108">
        <ele>39</ele>
        <time>2019-05-13T22:04:30Z</time>
      </trkpt>
      <trkpt lat="49.10551" lon="2.18094">
        <ele>48</ele>
        <time>2019-05-13T22:05:30Z</time>
      </trkpt>
      <trkpt lat="49.10518" lon="2.18067">
        <ele>58</ele>
        <time>2019-05-13T22:06:30Z</time>
      </trkpt>
      <trkpt lat="49.10498" lon="2.18071">
        <ele>62</ele>
        <time>2019-05-13T22:07:30Z</time>
      </trkpt>
      <trkpt lat="49.10467" lon="2.18129">
        <ele>58</ele>
        <time>2019-05-13T22:08:30Z</time>
      </trkpt>
      <trkpt lat="49.10442" lon="2.18148">
        <ele>56</ele>
        <time>2019-05-13T22:09:30Z</time>
      </trkpt>
      <trkpt lat="49.10415" lon="2.18156">
        <ele>56</ele>
        <time>2019-05-13T22:10:30Z</time>
      </trkpt>
      <trkpt lat="49.10383" lon="2.18144">
        <ele>55</ele>
        <time>2019-05-13T22:11:30Z</time>
      </trkpt>
      <trkpt lat="49.10359" lon="2.18117">
        <ele>59</ele>
        <time>2019-05-13T22:12:30Z</time>
      </trkpt>
      <trkpt lat="49.10355" lon="2.18036">
        <ele>73</ele>
        <time>2019-05-13T22:13:30Z</time>
      </trkpt>
      <trkpt lat="49.10372" lon="2.17943">
        <ele>84</ele>
        <time>2019-05-13T22:14:30Z</time>
      </trkpt>
      <trkpt lat="49.10398" lon="2.1786">
        <ele>90</ele>
        <time>2019-05-13T22:15:30Z</time>
      </trkpt>
      <trkpt lat="49.10403" lon="2.17793">
        <ele>90</ele>
        <time>2019-05-13T22:16:30Z</time>
      </trkpt>
      <trkpt lat="49.10403" lon="2.17725">
        <ele>91</ele>
        <time>2019-05-13T22:17:30Z</time>
      </trkpt>
      <trkpt lat="49.10314" lon="2.17432">
        <ele>96</ele>
        <time>2019-05-13T22:18:30Z</time>
      </trkpt>
      <trkpt lat="49.10249" lon="2.17196">
        <ele>99</ele>
        <time>2019-05-13T22:19:30Z</time>
      </trkpt>
      <trkpt lat="49.10217" lon="2.17134">
        <ele>100</ele>
        <time>2019-05-13T22:20:30Z</time>
      </trkpt>
      <trkpt lat="49.10104" lon="2.16898">
        <ele>100</ele>
        <time>2019-05-13T22:21:30Z</time>
      </trkpt>
      <trkpt lat="49.09973" lon="2.16633">
        <ele>95</ele>
        <time>2019-05-13T22:22:30Z</time>
      </trkpt>
      <trkpt lat="49.09929" lon="2.1651">
        <ele>92</ele>
        <time>2019-05-13T22:23:30Z</time>
      </trkpt>
      <trkpt lat="49.09901" lon="2.16427">
        <ele>90</ele>
        <time>2019-05-13T22:24:30Z</time>
      </trkpt>
      <trkpt lat="49.09831" lon="2.16299">
        <ele>86</ele>
        <time>2019-05-13T22:25:30Z</time>
      </trkpt>
      <trkpt lat="49.09742" lon="2.16141">
        <ele>84</ele>
        <time>2019-05-13T22:26:30Z</time>
      </trkpt>
      <trkpt lat="49.0966" lon="2.15987">
        <ele>81</ele>
        <time>2019-05-13T22:27:30Z</time>
      </trkpt>
      <trkpt lat="49.09562" lon="2.16011">
        <ele>77</ele>
        <time>2019-05-13T22:28:30Z</time>
      </trkpt>
      <trkpt lat="49.09472" lon="2.1602">
        <ele>78</ele>
        <time>2019-05-13T22:29:30Z</time>
      </trkpt>
      <trkpt lat="49.09417" lon="2.16008">
        <ele>75</ele>
        <time>2019-05-13T22:30:30Z</time>
      </trkpt>
      <trkpt lat="49.09291" lon="2.16036">
        <ele>76</ele>
        <time>2019-05-13T22:31:30Z</time>
      </trkpt>
      <trkpt lat="49.09278" lon="2.16054">
        <ele>77</ele>
        <time>2019-05-13T22:32:30Z</time>
      </trkpt>
      <trkpt lat="49.0914" lon="2.16072">
        <ele>74</ele>
        <time>2019-05-13T22:33:30Z</time>
      </trkpt>
      <trkpt lat="49.09104" lon="2.16084">
        <ele>72</ele>
        <time>2019-05-13T22:34:30Z</time>
      </trkpt>
      <trkpt lat="49.09019" lon="2.16138">
        <ele>73</ele>
        <time>2019-05-13T22:35:30Z</time>
      </trkpt>
      <trkpt lat="49.08911" lon="2.16211">
        <ele>72</ele>
        <time>2019-05-13T22:36:30Z</time>
      </trkpt>
      <trkpt lat="49.08814" lon="2.1632">
        <ele>74</ele>
        <time>2019-05-13T22:37:30Z</time>
      </trkpt>
      <trkpt lat="49.08744" lon="2.16365">
        <ele>69</ele>
        <time>2019-05-13T22:38:30Z</time>
      </trkpt>
      <trkpt lat="49.08679" lon="2.16471">
        <ele>67</ele>
        <time>2019-05-13T22:39:30Z</time>
      </trkpt>
      <trkpt lat="49.0866" lon="2.16511">
        <ele>66</ele>
        <time>2019-05-13T22:40:30Z</time>
      </trkpt>
      <trkpt lat="49.08633" lon="2.16578">
        <ele>68</ele>
        <time>2019-05-13T22:41:30Z</time>
      </trkpt>
      <trkpt lat="49.08605" lon="2.16751">
        <ele>67</ele>
        <time>2019-05-13T22:42:30Z</time>
      </trkpt>
      <trkpt lat="49.08568" lon="2.1684">
        <ele>69</ele>
        <time>2019-05-13T22:43:30Z</time>
      </trkpt>
      <trkpt lat="49.085" lon="2.16878">
        <ele>68</ele>
        <time>2019-05-13T22:44:30Z</time>
      </trkpt>
      <trkpt lat="49.0844" lon="2.16873">
        <ele>64</ele>
        <time>2019-05-13T22:45:30Z</time>
      </trkpt>
      <trkpt lat="49.08329" lon="2.16836">
        <ele>59</ele>
        <time>2019-05-13T22:46:30Z</time>
      </trkpt>
      <trkpt lat="49.08258" lon="2.16806">
        <ele>54</ele>
        <time>2019-05-13T22:47:30Z</time>
      </trkpt>
      <trkpt lat="49.08233" lon="2.16827">
        <ele>53</ele>
        <time>2019-05-13T22:48:30Z</time>
      </trkpt>
      <trkpt lat="49.08234" lon="2.16881">
        <ele>56</ele>
        <time>2019-05-13T22:49:30Z</time>
      </trkpt>
      <trkpt lat="49.08217" lon="2.16914">
        <ele>56</ele>
        <time>2019-05-13T22:50:30Z</time>
      </trkpt>
      <trkpt lat="49.08156" lon="2.16993">
        <ele>54</ele>
        <time>2019-05-13T22:51:30Z</time>
      </trkpt>
      <trkpt lat="49.08102" lon="2.17023">
        <ele>49</ele>
        <time>2019-05-13T22:52:30Z</time>
      </trkpt>
      <trkpt lat="49.08016" lon="2.17101">
        <ele>47</ele>
        <time>2019-05-13T22:53:30Z</time>
      </trkpt>
      <trkpt lat="49.07979" lon="2.17149">
        <ele>45</ele>
        <time>2019-05-13T22:54:30Z</time>
      </trkpt>
      <trkpt lat="49.07908" lon="2.17197">
        <ele>43</ele>
        <time>2019-05-13T22:55:30Z</time>
      </trkpt>
      <trkpt lat="49.0779" lon="2.17122">
        <ele>42</ele>
        <time>2019-05-13T22:56:30Z</time>
      </trkpt>
      <trkpt lat="49.07677" lon="2.17095">
        <ele>39</ele>
        <time>2019-05-13T22:57:30Z</time>
      </trkpt>
      <trkpt lat="49.07558" lon="2.17082">
        <ele>44</ele>
        <time>2019-05-13T22:58:30Z</time>
      </trkpt>
      <trkpt lat="49.07488" lon="2.17051">
        <ele>44</ele>
        <time>2019-05-13T22:59:30Z</time>
      </trkpt>
      <trkpt lat="49.07451" lon="2.16998">
        <ele>39</ele>
        <time>2019-05-13T23:00:30Z</time>
      </trkpt>
      <trkpt lat="49.07404" lon="2.16981">
        <ele>40</ele>
        <time>2019-05-13T23:01:30Z</time>
      </trkpt>
      <trkpt lat="49.07337" lon="2.16993">
        <ele>36</ele>
        <time>2019-05-13T23:02:30Z</time>
      </trkpt>
      <trkpt lat="49.07241" lon="2.1705">
        <ele>38</ele>
        <time>2019-05-13T23:03:30Z</time>
      </trkpt>
      <trkpt lat="49.07186" lon="2.17099">
        <ele>37</ele>
        <time>2019-05-13T23:04:30Z</time>
      </trkpt>
      <trkpt lat="49.07151" lon="2.17149">
        <ele>38</ele>
        <time>2019-05-13T23:05:30Z</time>
      </trkpt>
      <trkpt lat="49.07136" lon="2.17212">
        <ele>39</ele>
        <time>2019-05-13T23:06:30Z</time>
      </trkpt>
      <trkpt lat="49.07136" lon="2.17293">
        <ele>42</ele>
        <time>2019-05-13T23:07:30Z</time>
      </trkpt>
      <trkpt lat="49.07135" lon="2.1736">
        <ele>42</ele>
        <time>2019-05-13T23:08:30Z</time>
      </trkpt>
      <trkpt lat="49.07146" lon="2.17431">
        <ele>42</ele>
        <time>2019-05-13T23:09:30Z</time>
      </trkpt>
      <trkpt lat="49.07148" lon="2.17497">
        <ele>39</ele>
        <time>2019-05-13T23:10:30Z</time>
      </trkpt>
      <trkpt lat="49.0716" lon="2.17571">
        <ele>39</ele>
        <time>2019-05-13T23:11:30Z</time>
      </trkpt>
      <trkpt lat="49.07179" lon="2.17599">
        <ele>42</ele>
        <time>2019-05-13T23:12:30Z</time>
      </trkpt>
      <trkpt lat="49.07184" lon="2.17639">
        <ele>43</ele>
        <time>2019-05-13T23:13:30Z</time>
      </trkpt>
      <trkpt lat="49.07198" lon="2.17661">
        <ele>45</ele>
        <time>2019-05-13T23:14:30Z</time>
      </trkpt>
      <trkpt lat="49.07212" lon="2.17664">
        <ele>47</ele>
        <time>2019-05-13T23:15:30Z</time>
      </trkpt>
      <trkpt lat="49.07218" lon="2.17674">
        <ele>48</ele>
        <time>2019-05-13T23:16:30Z</time>
      </trkpt>
      <trkpt lat="49.07203" lon="2.17697">
        <ele>45</ele>
        <time>2019-05-13T23:17:30Z</time>
      </trkpt>
      <trkpt lat="49.07188" lon="2.17675">
        <ele>44</ele>
        <time>2019-05-13T23:18:30Z</time>
      </trkpt>
      <trkpt lat="49.07171" lon="2.17664">
        <ele>42</ele>
        <time>2019-05-13T23:19:30Z</time>
      </trkpt>
      <trkpt lat="49.07157" lon="2.17675">
        <ele>39</ele>
        <time>2019-05-13T23:20:30Z</time>
      </trkpt>
      <trkpt lat="49.0707" lon="2.1777">
        <ele>27</ele>
        <time>2019-05-13T23:21:30Z</time>
      </trkpt>
      <trkpt lat="49.07062" lon="2.17766">
        <ele>27</ele>
        <time>2019-05-13T23:22:30Z</time>
      </trkpt>
      <trkpt lat="49.07072" lon="2.17682">
        <ele>28</ele>
        <time>2019-05-13T23:23:30Z</time>
      </trkpt>
      <trkpt lat="49.07058" lon="2.1762">
        <ele>28</ele>
        <time>2019-05-13T23:24:30Z</time>
      </trkpt>
    </trkseg>
  </trk>
</gpx>